^^
Your Local Weather - Clay, NY Station Historical Data
Daily Summary for February 27, 2018 Units:  English    Metric   Both
« Previous Day
Next Day »
Daily Weekly Monthly Yearly Custom
  High: Low: Average:
Temperature: 55.2 °F 24.9 °F 40.3 °F
Dew Point: 33.0 °F 20.1 °F 26 °F
Humidity: 88% 34% 59%
Wind Speed: 6.0mph 0.0mph 1.2mph
Wind Gust: 11.0mph - -
Wind- - WSW
Pressure: 30.31 in 30.04 in -
Precipitation: 0.00 in    
Historical Graphs
 
 
Tabular Data for February 27, 2018
Time Temperature Dew Point Pressure Wind Wind Speed Wind Gust Humidity Rainfall Rate (Hourly) solar
00:04 33.5 °F 22.2 °F 30.27 in Calm   2.0 mph 63% 0.00 in 0 W/m2
00:10 33.4 °F 22.5 °F 30.27 in Calm     64% 0.00 in 0 W/m2
00:16 33.2 °F 22.3 °F 30.27 in Calm   1.0 mph 64% 0.00 in 0 W/m2
00:22 33.0 °F 22.1 °F 30.27 in Calm   1.0 mph 64% 0.00 in 0 W/m2
00:28 32.9 °F 22.4 °F 30.27 in West 1.0 mph 1.0 mph 65% 0.00 in 0 W/m2
00:34 33.0 °F 22.1 °F 30.28 in West 1.0 mph 1.0 mph 64% 0.00 in 0 W/m2
00:40 32.9 °F 22.0 °F 30.28 in West 1.0 mph 1.0 mph 64% 0.00 in 0 W/m2
00:46 32.8 °F 22.0 °F 30.28 in Calm   1.0 mph 64% 0.00 in 0 W/m2
00:52 32.7 °F 22.2 °F 30.28 in Calm     65% 0.00 in 0 W/m2
00:58 32.5 °F 22.0 °F 30.28 in Calm   2.0 mph 65% 0.00 in 0 W/m2
01:04 32.5 °F 21.7 °F 30.28 in Calm     64% 0.00 in 0 W/m2
01:10 32.3 °F 21.8 °F 30.28 in Calm     65% 0.00 in 0 W/m2
01:16 32.1 °F 21.7 °F 30.28 in Calm     65% 0.00 in 0 W/m2
01:22 31.8 °F 21.7 °F 30.28 in Calm     66% 0.00 in 0 W/m2
01:28 31.6 °F 21.5 °F 30.28 in Calm   1.0 mph 66% 0.00 in 0 W/m2
01:34 31.8 °F 21.4 °F 30.28 in West 1.0 mph 1.0 mph 65% 0.00 in 0 W/m2
01:40 32.1 °F 21.7 °F 30.28 in West 1.0 mph 2.0 mph 65% 0.00 in 0 W/m2
01:46 32.1 °F 21.3 °F 30.28 in West 1.0 mph 2.0 mph 64% 0.00 in 0 W/m2
01:52 32.0 °F 21.2 °F 30.28 in Calm     64% 0.00 in 0 W/m2
01:58 32.0 °F 21.2 °F 30.28 in West 1.0 mph 1.0 mph 64% 0.00 in 0 W/m2
02:04 31.9 °F 21.1 °F 30.28 in Calm   1.0 mph 64% 0.00 in 0 W/m2
02:10 31.8 °F 21.0 °F 30.28 in Calm     64% 0.00 in 0 W/m2
02:16 31.7 °F 20.9 °F 30.28 in West 1.0 mph 1.0 mph 64% 0.00 in 0 W/m2
02:22 31.6 °F 21.2 °F 30.28 in Calm   1.0 mph 65% 0.00 in 0 W/m2
02:28 31.5 °F 21.1 °F 30.28 in Calm   1.0 mph 65% 0.00 in 0 W/m2
02:34 31.5 °F 21.1 °F 30.28 in Calm   1.0 mph 65% 0.00 in 0 W/m2
02:40 31.6 °F 21.2 °F 30.28 in WSW 1.0 mph 2.0 mph 65% 0.00 in 0 W/m2
02:46 31.7 °F 21.3 °F 30.28 in WSW 1.0 mph 2.0 mph 65% 0.00 in 0 W/m2
02:52 31.8 °F 21.0 °F 30.28 in WSW 1.0 mph 1.0 mph 64% 0.00 in 0 W/m2
02:58 31.7 °F 20.9 °F 30.28 in Calm   1.0 mph 64% 0.00 in 0 W/m2
03:04 31.5 °F 20.7 °F 30.28 in Calm     64% 0.00 in 0 W/m2
03:10 31.2 °F 20.8 °F 30.28 in Calm     65% 0.00 in 0 W/m2
03:16 30.9 °F 20.9 °F 30.28 in Calm     66% 0.00 in 0 W/m2
03:26 30.1 °F 20.8 °F 30.28 in Calm     68% 0.00 in 0 W/m2
03:32 29.6 °F 20.3 °F 30.28 in Calm     68% 0.00 in 0 W/m2
03:38 29.2 °F 20.3 °F 30.28 in Calm     69% 0.00 in 0 W/m2
03:44 29.0 °F 20.4 °F 30.28 in Calm     70% 0.00 in 0 W/m2
03:50 28.9 °F 20.3 °F 30.28 in Calm     70% 0.00 in 0 W/m2
04:00 28.7 °F 20.5 °F 30.28 in Calm     71% 0.00 in 0 W/m2
04:06 28.9 °F 20.7 °F 30.28 in Calm     71% 0.00 in 0 W/m2
04:12 29.0 °F 20.8 °F 30.28 in Calm     71% 0.00 in 0 W/m2
04:18 29.0 °F 20.4 °F 30.28 in Calm     70% 0.00 in 0 W/m2
04:24 28.9 °F 20.3 °F 30.28 in Calm     70% 0.00 in 0 W/m2
04:30 28.7 °F 20.1 °F 30.28 in Calm     70% 0.00 in 0 W/m2
04:36 28.4 °F 20.2 °F 30.28 in Calm     71% 0.00 in 0 W/m2
04:42 28.1 °F 20.2 °F 30.28 in Calm     72% 0.00 in 0 W/m2
04:48 28.0 °F 20.5 °F 30.28 in Calm     73% 0.00 in 0 W/m2
04:54 27.7 °F 20.5 °F 30.28 in Calm     74% 0.00 in 0 W/m2
05:00 27.4 °F 20.5 °F 30.28 in Calm     75% 0.00 in 0 W/m2
05:06 27.2 °F 20.3 °F 30.29 in Calm     75% 0.00 in 0 W/m2
05:12 26.9 °F 20.3 °F 30.29 in Calm     76% 0.00 in 0 W/m2
05:18 26.8 °F 20.6 °F 30.29 in Calm     77% 0.00 in 0 W/m2
05:24 26.7 °F 20.8 °F 30.30 in Calm     78% 0.00 in 0 W/m2
05:30 26.6 °F 21.0 °F 30.29 in Calm     79% 0.00 in 0 W/m2
05:36 26.5 °F 21.5 °F 30.29 in Calm     81% 0.00 in 0 W/m2
05:42 26.4 °F 21.7 °F 30.29 in Calm     82% 0.00 in 0 W/m2
05:48 26.2 °F 21.7 °F 30.29 in Calm     83% 0.00 in 0 W/m2
05:54 26.0 °F 21.5 °F 30.29 in Calm     83% 0.00 in 0 W/m2
06:00 25.7 °F 21.3 °F 30.29 in Calm     83% 0.00 in 0 W/m2
06:06 25.4 °F 21.0 °F 30.29 in Calm     83% 0.00 in 0 W/m2
06:12 25.1 °F 20.7 °F 30.29 in Calm     83% 0.00 in 0 W/m2
06:18 25.0 °F 20.8 °F 30.29 in Calm     84% 0.00 in 0 W/m2
06:24 25.0 °F 20.8 °F 30.30 in Calm     84% 0.00 in 0 W/m2
06:30 24.9 °F 20.8 °F 30.30 in Calm     84% 0.00 in 0 W/m2
06:36 24.9 °F 21.0 °F 30.30 in Calm     85% 0.00 in 0 W/m2
06:42 25.0 °F 21.1 °F 30.30 in Calm     85% 0.00 in 5 W/m2
06:48 25.3 °F 21.7 °F 30.29 in Calm     86% 0.00 in 7 W/m2
06:54 25.5 °F 21.9 °F 30.30 in Calm     86% 0.00 in 9 W/m2
07:00 25.7 °F 22.1 °F 30.29 in Calm     86% 0.00 in 12 W/m2
07:06 25.8 °F 22.2 °F 30.30 in Calm     86% 0.00 in 14 W/m2
07:12 25.8 °F 22.5 °F 30.30 in Calm     87% 0.00 in 18 W/m2
07:18 25.8 °F 22.5 °F 30.30 in Calm     87% 0.00 in 25 W/m2
07:24 25.8 °F 22.5 °F 30.30 in Calm     87% 0.00 in 28 W/m2
07:30 25.9 °F 22.6 °F 30.31 in Calm     87% 0.00 in 40 W/m2
07:36 26.1 °F 22.8 °F 30.31 in Calm     87% 0.00 in 74 W/m2
07:42 26.4 °F 23.3 °F 30.31 in Calm     88% 0.00 in 74 W/m2
07:48 26.8 °F 23.7 °F 30.31 in Calm     88% 0.00 in 70 W/m2
07:56 27.3 °F 24.2 °F 30.31 in Calm     88% 0.00 in 60 W/m2
08:02 28.0 °F 24.9 °F 30.31 in Calm     88% 0.00 in 91 W/m2
08:08 29.0 °F 25.9 °F 30.31 in Calm     88% 0.00 in 137 W/m2
08:14 29.8 °F 26.4 °F 30.31 in Calm     87% 0.00 in 171 W/m2
08:20 30.7 °F 27.3 °F 30.31 in Calm     87% 0.00 in 211 W/m2
08:26 32.0 °F 28.3 °F 30.31 in Calm     86% 0.00 in 186 W/m2
08:32 33.1 °F 29.1 °F 30.31 in Calm     85% 0.00 in 206 W/m2
08:38 33.9 °F 29.6 °F 30.31 in Calm   1.0 mph 84% 0.00 in 232 W/m2
08:44 34.8 °F 29.9 °F 30.31 in Calm   1.0 mph 82% 0.00 in 258 W/m2
08:50 36.5 °F 29.7 °F 30.30 in Calm     76% 0.00 in 290 W/m2
08:56 38.2 °F 28.2 °F 30.31 in Calm     67% 0.00 in 359 W/m2
09:02 39.9 °F 27.5 °F 30.30 in Calm     61% 0.00 in 378 W/m2
09:08 40.9 °F 28.1 °F 30.30 in Calm     60% 0.00 in 392 W/m2
09:14 41.9 °F 28.2 °F 30.30 in Calm     58% 0.00 in 406 W/m2
09:20 42.9 °F 28.7 °F 30.30 in Calm     57% 0.00 in 415 W/m2
09:26 44.2 °F 29.5 °F 30.30 in Calm   2.0 mph 56% 0.00 in 431 W/m2
09:32 45.2 °F 28.1 °F 30.30 in Calm   1.0 mph 51% 0.00 in 450 W/m2
09:38 46.0 °F 29.8 °F 30.30 in Calm   1.0 mph 53% 0.00 in 468 W/m2
09:44 45.3 °F 28.2 °F 30.30 in SW 1.0 mph 3.0 mph 51% 0.00 in 482 W/m2
09:50 45.7 °F 28.1 °F 30.30 in West 2.0 mph 2.0 mph 50% 0.00 in 497 W/m2
09:56 46.0 °F 27.9 °F 30.29 in NW 2.0 mph 4.0 mph 49% 0.00 in 510 W/m2
10:02 46.5 °F 28.8 °F 30.29 in West 2.0 mph 5.0 mph 50% 0.00 in 519 W/m2
10:08 46.5 °F 28.3 °F 30.29 in WSW 2.0 mph 5.0 mph 49% 0.00 in 533 W/m2
10:14 47.2 °F 29.0 °F 30.29 in WSW 2.0 mph 4.0 mph 49% 0.00 in 543 W/m2
10:20 48.0 °F 30.2 °F 30.29 in West 1.0 mph 3.0 mph 50% 0.00 in 555 W/m2
10:26 47.6 °F 29.9 °F 30.29 in WNW 2.0 mph 4.0 mph 50% 0.00 in 568 W/m2
10:32 47.7 °F 29.5 °F 30.28 in WNW 3.0 mph 8.0 mph 49% 0.00 in 578 W/m2
10:38 48.2 °F 28.9 °F 30.28 in WNW 3.0 mph 8.0 mph 47% 0.00 in 585 W/m2
10:46 48.5 °F 30.2 °F 30.28 in SW 2.0 mph 2.0 mph 49% 0.00 in 601 W/m2
10:52 48.7 °F 30.9 °F 30.28 in West 2.0 mph 4.0 mph 50% 0.00 in 608 W/m2
10:58 49.5 °F 32.1 °F 30.27 in West 2.0 mph 3.0 mph 51% 0.00 in 619 W/m2
11:04 49.4 °F 29.5 °F 30.27 in SW 2.0 mph 5.0 mph 46% 0.00 in 626 W/m2
11:10 50.0 °F 32.1 °F 30.27 in WSW 2.0 mph 3.0 mph 50% 0.00 in 629 W/m2
11:16 49.4 °F 30.0 °F 30.27 in SW 2.0 mph 4.0 mph 47% 0.00 in 636 W/m2
11:22 49.8 °F 29.8 °F 30.27 in WSW 4.0 mph 6.0 mph 46% 0.00 in 642 W/m2
11:28 49.6 °F 30.7 °F 30.26 in South 4.0 mph 7.0 mph 48% 0.00 in 645 W/m2
11:34 50.4 °F 30.4 °F 30.26 in WSW 3.0 mph 3.0 mph 46% 0.00 in 649 W/m2
11:40 50.5 °F 32.5 °F 30.25 in SW 3.0 mph 3.0 mph 50% 0.00 in 656 W/m2
11:46 51.4 °F 31.8 °F 30.25 in WSW 3.0 mph 5.0 mph 47% 0.00 in 656 W/m2
11:52 51.7 °F 30.5 °F 30.25 in WSW 3.0 mph 3.0 mph 44% 0.00 in 661 W/m2
11:58 51.9 °F 30.6 °F 30.25 in SW 3.0 mph 6.0 mph 44% 0.00 in 659 W/m2
12:04 52.5 °F 31.2 °F 30.24 in SW 3.0 mph 5.0 mph 44% 0.00 in 663 W/m2
12:10 52.2 °F 29.8 °F 30.24 in West 3.0 mph 4.0 mph 42% 0.00 in 661 W/m2
12:16 52.0 °F 30.7 °F 30.24 in West 4.0 mph 4.0 mph 44% 0.00 in 657 W/m2
12:22 52.2 °F 32.6 °F 30.24 in WSW 4.0 mph 5.0 mph 47% 0.00 in 657 W/m2
12:28 52.5 °F 31.2 °F 30.24 in WSW 4.0 mph 5.0 mph 44% 0.00 in 656 W/m2
12:34 52.4 °F 32.2 °F 30.23 in SW 5.0 mph 7.0 mph 46% 0.00 in 652 W/m2
12:40 53.2 °F 32.4 °F 30.23 in WSW 4.0 mph 4.0 mph 45% 0.00 in 657 W/m2
12:46 53.1 °F 31.2 °F 30.22 in West 4.0 mph 11.0 mph 43% 0.00 in 650 W/m2
12:52 53.1 °F 31.7 °F 30.22 in WNW 5.0 mph 10.0 mph 44% 0.00 in 657 W/m2
12:58 53.5 °F 32.1 °F 30.22 in West 5.0 mph 10.0 mph 44% 0.00 in 645 W/m2
13:04 53.0 °F 30.5 °F 30.22 in West 5.0 mph 5.0 mph 42% 0.00 in 668 W/m2
13:10 52.6 °F 31.3 °F 30.21 in West 6.0 mph 6.0 mph 44% 0.00 in 657 W/m2
13:16 53.5 °F 32.1 °F 30.21 in West 5.0 mph 6.0 mph 44% 0.00 in 638 W/m2
13:22 53.4 °F 31.4 °F 30.20 in SW 5.0 mph 5.0 mph 43% 0.00 in 650 W/m2
13:28 53.1 °F 31.2 °F 30.20 in WSW 6.0 mph 9.0 mph 43% 0.00 in 130 W/m2
13:34 52.4 °F 31.1 °F 30.20 in West 4.0 mph 5.0 mph 44% 0.00 in 141 W/m2
13:40 54.0 °F 32.6 °F 30.19 in SW 3.0 mph 4.0 mph 44% 0.00 in 612 W/m2
13:46 54.8 °F 32.7 °F 30.19 in WNW 3.0 mph 4.0 mph 43% 0.00 in 670 W/m2
13:52 55.1 °F 33.0 °F 30.18 in WSW 3.0 mph 9.0 mph 43% 0.00 in 666 W/m2
13:58 54.7 °F 30.8 °F 30.18 in West 5.0 mph 9.0 mph 40% 0.00 in 657 W/m2
14:04 54.1 °F 29.7 °F 30.18 in SW 6.0 mph 6.0 mph 39% 0.00 in 643 W/m2
14:10 54.7 °F 30.2 °F 30.18 in South 6.0 mph 9.0 mph 39% 0.00 in 610 W/m2
14:16 54.5 °F 28.7 °F 30.17 in WNW 6.0 mph 9.0 mph 37% 0.00 in 617 W/m2
14:22 54.5 °F 29.4 °F 30.17 in West 4.0 mph 5.0 mph 38% 0.00 in 151 W/m2
14:28 53.7 °F 28.7 °F 30.17 in WSW 4.0 mph 10.0 mph 38% 0.00 in 123 W/m2
14:34 54.0 °F 30.2 °F 30.17 in West 3.0 mph 6.0 mph 40% 0.00 in 526 W/m2
14:40 54.3 °F 29.2 °F 30.17 in WNW 4.0 mph 4.0 mph 38% 0.00 in 543 W/m2
14:46 54.6 °F 28.2 °F 30.17 in WNW 5.0 mph 6.0 mph 36% 0.00 in 483 W/m2
14:52 54.5 °F 28.7 °F 30.16 in West 5.0 mph 6.0 mph 37% 0.00 in 459 W/m2
14:58 54.5 °F 29.4 °F 30.16 in West 5.0 mph 8.0 mph 38% 0.00 in 492 W/m2
15:04 55.2 °F 29.4 °F 30.16 in WSW 4.0 mph 5.0 mph 37% 0.00 in 438 W/m2
15:10 55.1 °F 29.9 °F 30.16 in WSW 4.0 mph 4.0 mph 38% 0.00 in 464 W/m2
15:16 55.0 °F 29.8 °F 30.16 in WNW 3.0 mph 7.0 mph 38% 0.00 in 473 W/m2
15:22 55.1 °F 29.3 °F 30.16 in WSW 5.0 mph 8.0 mph 37% 0.00 in 434 W/m2
15:28 55.1 °F 29.3 °F 30.16 in WSW 5.0 mph 8.0 mph 37% 0.00 in 411 W/m2
15:34 54.9 °F 30.4 °F 30.15 in WSW 4.0 mph 5.0 mph 39% 0.00 in 74 W/m2
15:40 54.4 °F 29.3 °F 30.15 in WSW 3.0 mph 3.0 mph 38% 0.00 in 373 W/m2
15:46 54.3 °F 29.8 °F 30.14 in SW 4.0 mph 4.0 mph 39% 0.00 in 364 W/m2
15:52 54.8 °F 29.7 °F 30.14 in WNW 4.0 mph 4.0 mph 38% 0.00 in 359 W/m2
15:58 55.1 °F 29.3 °F 30.14 in WSW 4.0 mph 5.0 mph 37% 0.00 in 348 W/m2
16:04 55.2 °F 30.0 °F 30.14 in NW 4.0 mph 4.0 mph 38% 0.00 in 309 W/m2
16:10 54.9 °F 27.7 °F 30.14 in West 4.0 mph 7.0 mph 35% 0.00 in 288 W/m2
16:16 54.9 °F 27.7 °F 30.13 in WSW 4.0 mph 7.0 mph 35% 0.00 in 272 W/m2
16:22 55.1 °F 27.9 °F 30.13 in SW 3.0 mph 4.0 mph 35% 0.00 in 248 W/m2
16:28 54.8 °F 26.9 °F 30.13 in WNW 3.0 mph 6.0 mph 34% 0.00 in 227 W/m2
16:34 54.6 °F 26.8 °F 30.13 in WSW 3.0 mph 6.0 mph 34% 0.00 in 209 W/m2
16:40 54.2 °F 27.1 °F 30.13 in West 3.0 mph 4.0 mph 35% 0.00 in 40 W/m2
16:46 53.9 °F 27.5 °F 30.13 in WNW 3.0 mph 4.0 mph 36% 0.00 in 37 W/m2
16:54 53.7 °F 27.4 °F 30.13 in SSW 2.0 mph 3.0 mph 36% 0.00 in 30 W/m2
17:02 53.3 °F 27.0 °F 30.13 in SW 2.0 mph 2.0 mph 36% 0.00 in 28 W/m2
17:08 53.2 °F 26.2 °F 30.13 in West 3.0 mph 3.0 mph 35% 0.00 in 26 W/m2
17:14 53.1 °F 26.1 °F 30.12 in WSW 3.0 mph 3.0 mph 35% 0.00 in 23 W/m2
17:20 52.9 °F 26.6 °F 30.12 in WSW 2.0 mph 2.0 mph 36% 0.00 in 21 W/m2
17:26 52.6 °F 26.4 °F 30.12 in SW 1.0 mph 6.0 mph 36% 0.00 in 18 W/m2
17:32 52.5 °F 26.9 °F 30.12 in SW 2.0 mph 2.0 mph 37% 0.00 in 12 W/m2
17:38 52.1 °F 26.6 °F 30.12 in SW 1.0 mph 4.0 mph 37% 0.00 in 9 W/m2
17:44 51.8 °F 26.3 °F 30.12 in SW 1.0 mph 1.0 mph 37% 0.00 in 7 W/m2
17:50 51.4 °F 26.6 °F 30.11 in Calm     38% 0.00 in 0 W/m2
17:56 50.7 °F 26.6 °F 30.11 in Calm     39% 0.00 in 0 W/m2
18:02 50.0 °F 26.6 °F 30.11 in Calm     40% 0.00 in 0 W/m2
18:10 48.9 °F 27.4 °F 30.11 in Calm     43% 0.00 in 0 W/m2
18:16 47.7 °F 27.4 °F 30.11 in Calm     45% 0.00 in 0 W/m2
18:22 46.7 °F 27.0 °F 30.11 in Calm     46% 0.00 in 0 W/m2
18:28 45.5 °F 26.9 °F 30.11 in Calm     48% 0.00 in 0 W/m2
18:34 44.9 °F 26.4 °F 30.11 in Calm     48% 0.00 in 0 W/m2
18:40 44.3 °F 26.8 °F 30.11 in Calm     50% 0.00 in 0 W/m2
18:46 43.7 °F 26.7 °F 30.11 in Calm     51% 0.00 in 0 W/m2
18:52 43.0 °F 27.0 °F 30.11 in Calm     53% 0.00 in 0 W/m2
18:58 42.5 °F 26.6 °F 30.11 in Calm     53% 0.00 in 0 W/m2
19:04 42.2 °F 27.2 °F 30.11 in Calm     55% 0.00 in 0 W/m2
19:10 41.6 °F 27.5 °F 30.11 in Calm     57% 0.00 in 0 W/m2
19:16 41.0 °F 26.5 °F 30.10 in Calm     56% 0.00 in 0 W/m2
19:22 40.7 °F 26.6 °F 30.10 in Calm     57% 0.00 in 0 W/m2
19:28 40.4 °F 26.8 °F 30.10 in Calm     58% 0.00 in 0 W/m2
19:34 40.0 °F 26.8 °F 30.09 in Calm     59% 0.00 in 0 W/m2
19:40 39.8 °F 26.6 °F 30.09 in Calm     59% 0.00 in 0 W/m2
19:46 39.6 °F 26.8 °F 30.09 in Calm     60% 0.00 in 0 W/m2
19:52 39.3 °F 27.0 °F 30.09 in Calm     61% 0.00 in 0 W/m2
19:58 38.9 °F 26.6 °F 30.09 in Calm     61% 0.00 in 0 W/m2
20:04 38.6 °F 26.7 °F 30.09 in Calm     62% 0.00 in 0 W/m2
20:10 38.2 °F 26.7 °F 30.09 in Calm     63% 0.00 in 0 W/m2
20:16 38.0 °F 26.5 °F 30.09 in Calm     63% 0.00 in 0 W/m2
20:22 37.9 °F 26.8 °F 30.09 in Calm     64% 0.00 in 0 W/m2
20:28 37.8 °F 26.7 °F 30.09 in Calm     64% 0.00 in 0 W/m2
20:34 37.9 °F 26.8 °F 30.08 in Calm     64% 0.00 in 0 W/m2
20:40 38.1 °F 27.0 °F 30.08 in Calm     64% 0.00 in 0 W/m2
20:46 38.4 °F 27.7 °F 30.08 in Calm     65% 0.00 in 0 W/m2
20:52 38.3 °F 27.2 °F 30.08 in Calm     64% 0.00 in 0 W/m2
20:58 38.1 °F 27.4 °F 30.08 in Calm     65% 0.00 in 0 W/m2
21:04 37.9 °F 27.2 °F 30.08 in Calm     65% 0.00 in 0 W/m2
21:10 37.7 °F 27.0 °F 30.08 in Calm     65% 0.00 in 0 W/m2
21:16 37.6 °F 27.3 °F 30.08 in Calm     66% 0.00 in 0 W/m2
21:22 37.3 °F 27.3 °F 30.07 in Calm     67% 0.00 in 0 W/m2
21:28 36.6 °F 27.0 °F 30.08 in Calm     68% 0.00 in 0 W/m2
21:34 36.3 °F 27.1 °F 30.08 in Calm     69% 0.00 in 0 W/m2
21:40 36.3 °F 27.1 °F 30.07 in Calm     69% 0.00 in 0 W/m2
21:46 36.5 °F 27.3 °F 30.07 in Calm     69% 0.00 in 0 W/m2
21:52 36.7 °F 27.5 °F 30.06 in Calm     69% 0.00 in 0 W/m2
21:58 36.6 °F 27.0 °F 30.06 in Calm     68% 0.00 in 0 W/m2
22:04 36.3 °F 27.1 °F 30.06 in Calm     69% 0.00 in 0 W/m2
22:10 36.2 °F 27.0 °F 30.06 in Calm     69% 0.00 in 0 W/m2
22:16 36.2 °F 27.0 °F 30.06 in Calm     69% 0.00 in 0 W/m2
22:22 36.5 °F 26.9 °F 30.05 in Calm   1.0 mph 68% 0.00 in 0 W/m2
22:28 37.0 °F 26.7 °F 30.05 in SW 1.0 mph 3.0 mph 66% 0.00 in 0 W/m2
22:34 38.4 °F 26.9 °F 30.05 in SW 1.0 mph 2.0 mph 63% 0.00 in 0 W/m2
22:40 39.7 °F 26.5 °F 30.05 in Calm     59% 0.00 in 0 W/m2
22:46 40.4 °F 25.9 °F 30.05 in Calm   1.0 mph 56% 0.00 in 0 W/m2
22:52 41.1 °F 26.1 °F 30.05 in Calm   1.0 mph 55% 0.00 in 0 W/m2
22:58 41.4 °F 25.5 °F 30.05 in Calm   1.0 mph 53% 0.00 in 0 W/m2
23:04 41.4 °F 25.5 °F 30.05 in Calm     53% 0.00 in 0 W/m2
23:10 40.7 °F 26.2 °F 30.04 in Calm     56% 0.00 in 0 W/m2
23:16 39.0 °F 26.3 °F 30.04 in Calm     60% 0.00 in 0 W/m2
23:22 37.9 °F 26.0 °F 30.04 in Calm     62% 0.00 in 0 W/m2
23:28 36.9 °F 25.9 °F 30.04 in Calm     64% 0.00 in 0 W/m2
23:34 36.2 °F 26.3 °F 30.04 in Calm     67% 0.00 in 0 W/m2
23:40 35.6 °F 26.1 °F 30.04 in Calm     68% 0.00 in 0 W/m2
23:46 35.2 °F 26.0 °F 30.04 in Calm     69% 0.00 in 0 W/m2
23:52 34.7 °F 25.6 °F 30.04 in Calm     69% 0.00 in 0 W/m2
23:58 34.3 °F 25.5 °F 30.04 in Calm     70% 0.00 in 0 W/m2
Country Meadow, Clay, NY, USA
Compliments of Weather Underground - 2 mb